sensor_id;sensor_type;location;lat;lon;timestamp;pressure;altitude;pressure_sealevel;temperature;humidity
21900;BME280;11114;50.658;12.704;2023-09-08T00:00:23;96570.75;;;16.01;49.82
21900;BME280;11114;50.658;12.704;2023-09-08T00:03:09;96558.50;;;15.94;49.83
21900;BME280;11114;50.658;12.704;2023-09-08T00:05:56;96567.03;;;15.89;49.61
21900;BME280;11114;50.658;12.704;2023-09-08T00:08:43;96563.81;;;15.87;49.75
21900;BME280;11114;50.658;12.704;2023-09-08T00:11:29;96563.19;;;15.85;50.31
21900;BME280;11114;50.658;12.704;2023-09-08T00:14:17;96555.84;;;15.81;50.43
21900;BME280;11114;50.658;12.704;2023-09-08T00:17:04;96563.00;;;15.80;50.44
21900;BME280;11114;50.658;12.704;2023-09-08T00:19:51;96560.94;;;15.82;50.51
21900;BME280;11114;50.658;12.704;2023-09-08T00:22:38;96558.47;;;15.74;50.30
21900;BME280;11114;50.658;12.704;2023-09-08T00:25:24;96562.56;;;15.70;50.56
21900;BME280;11114;50.658;12.704;2023-09-08T00:28:11;96562.16;;;15.67;50.76
21900;BME280;11114;50.658;12.704;2023-09-08T00:30:57;96559.91;;;15.70;50.74
21900;BME280;11114;50.658;12.704;2023-09-08T00:33:46;96559.09;;;15.70;50.77
21900;BME280;11114;50.658;12.704;2023-09-08T00:36:33;96560.31;;;15.67;51.06
21900;BME280;11114;50.658;12.704;2023-09-08T00:39:20;96556.03;;;15.66;50.86
21900;BME280;11114;50.658;12.704;2023-09-08T00:42:06;96559.69;;;15.65;51.25
21900;BME280;11114;50.658;12.704;2023-09-08T00:44:53;96556.00;;;15.60;51.26
21900;BME280;11114;50.658;12.704;2023-09-08T00:47:40;96558.84;;;15.58;51.27
21900;BME280;11114;50.658;12.704;2023-09-08T00:50:26;96564.78;;;15.60;51.20
21900;BME280;11114;50.658;12.704;2023-09-08T00:53:13;96558.66;;;15.60;51.15
21900;BME280;11114;50.658;12.704;2023-09-08T00:56:00;96559.63;;;15.59;51.56
21900;BME280;11114;50.658;12.704;2023-09-08T00:58:47;96560.25;;;15.54;51.55
21900;BME280;11114;50.658;12.704;2023-09-08T01:01:34;96552.50;;;15.53;51.37
21900;BME280;11114;50.658;12.704;2023-09-08T01:04:21;96558.00;;;15.51;51.73
21900;BME280;11114;50.658;12.704;2023-09-08T01:07:09;96552.66;;;15.39;51.71
21900;BME280;11114;50.658;12.704;2023-09-08T01:09:58;96557.09;;;15.19;52.08
21900;BME280;11114;50.658;12.704;2023-09-08T01:12:50;96549.75;;;15.14;52.46
21900;BME280;11114;50.658;12.704;2023-09-08T01:15:37;96555.47;;;15.18;52.42
21900;BME280;11114;50.658;12.704;2023-09-08T01:18:25;96549.34;;;15.17;52.69
21900;BME280;11114;50.658;12.704;2023-09-08T01:27:33;96552.81;;;15.18;52.76
21900;BME280;11114;50.658;12.704;2023-09-08T01:30:23;96549.56;;;15.16;52.58
21900;BME280;11114;50.658;12.704;2023-09-08T01:33:11;96549.91;;;15.06;52.91
21900;BME280;11114;50.658;12.704;2023-09-08T01:35:58;96549.28;;;14.98;52.59
21900;BME280;11114;50.658;12.704;2023-09-08T01:38:44;96553.31;;;14.94;53.15
21900;BME280;11114;50.658;12.704;2023-09-08T01:41:31;96551.09;;;14.91;53.12
21900;BME280;11114;50.658;12.704;2023-09-08T01:44:19;96559.59;;;14.86;53.21
21900;BME280;11114;50.658;12.704;2023-09-08T01:47:05;96556.91;;;14.80;53.44
21900;BME280;11114;50.658;12.704;2023-09-08T01:49:52;96558.34;;;14.82;53.93
21900;BME280;11114;50.658;12.704;2023-09-08T01:52:38;96549.63;;;14.82;53.80
21900;BME280;11114;50.658;12.704;2023-09-08T01:55:25;96553.28;;;14.81;53.68
21900;BME280;11114;50.658;12.704;2023-09-08T01:58:11;96553.66;;;14.78;53.73
21900;BME280;11114;50.658;12.704;2023-09-08T02:00:58;96549.16;;;14.72;53.92
21900;BME280;11114;50.658;12.704;2023-09-08T02:03:53;96553.94;;;14.62;54.04
21900;BME280;11114;50.658;12.704;2023-09-08T02:06:40;96548.22;;;14.59;54.20
21900;BME280;11114;50.658;12.704;2023-09-08T02:09:36;96546.13;;;14.48;54.73
21900;BME280;11114;50.658;12.704;2023-09-08T02:12:23;96552.78;;;14.37;54.80
21900;BME280;11114;50.658;12.704;2023-09-08T02:15:09;96549.50;;;14.35;55.03
21900;BME280;11114;50.658;12.704;2023-09-08T02:17:57;96551.13;;;14.36;55.07
21900;BME280;11114;50.658;12.704;2023-09-08T02:20:45;96555.84;;;14.41;54.76
21900;BME280;11114;50.658;12.704;2023-09-08T02:23:31;96556.63;;;14.41;55.00
21900;BME280;11114;50.658;12.704;2023-09-08T02:26:18;96552.81;;;14.44;55.16
21900;BME280;11114;50.658;12.704;2023-09-08T02:29:04;96554.03;;;14.48;55.02
21900;BME280;11114;50.658;12.704;2023-09-08T02:31:51;96557.69;;;14.47;55.31
21900;BME280;11114;50.658;12.704;2023-09-08T02:34:37;96555.41;;;14.37;55.45
21900;BME280;11114;50.658;12.704;2023-09-08T02:37:26;96560.22;;;14.27;55.71
21900;BME280;11114;50.658;12.704;2023-09-08T02:40:12;96563.22;;;14.24;55.67
21900;BME280;11114;50.658;12.704;2023-09-08T02:43:03;96558.84;;;14.31;55.86
21900;BME280;11114;50.658;12.704;2023-09-08T02:45:50;96557.00;;;14.32;55.83
21900;BME280;11114;50.658;12.704;2023-09-08T02:48:38;96557.78;;;14.32;55.72
21900;BME280;11114;50.658;12.704;2023-09-08T02:51:25;96553.16;;;14.34;55.59
21900;BME280;11114;50.658;12.704;2023-09-08T02:54:12;96549.69;;;14.34;56.14
21900;BME280;11114;50.658;12.704;2023-09-08T02:56:58;96548.28;;;14.31;56.86
21900;BME280;11114;50.658;12.704;2023-09-08T02:59:49;96549.50;;;14.35;56.90
21900;BME280;11114;50.658;12.704;2023-09-08T03:02:37;96550.31;;;14.36;57.21
21900;BME280;11114;50.658;12.704;2023-09-08T03:05:25;96548.06;;;14.33;57.33
21900;BME280;11114;50.658;12.704;2023-09-08T03:08:14;96552.56;;;14.39;57.31
21900;BME280;11114;50.658;12.704;2023-09-08T03:11:00;96551.41;;;14.48;57.14
21900;BME280;11114;50.658;12.704;2023-09-08T03:13:47;96549.19;;;14.51;57.17
21900;BME280;11114;50.658;12.704;2023-09-08T03:16:34;96542.31;;;14.57;56.84
21900;BME280;11114;50.658;12.704;2023-09-08T03:19:22;96545.38;;;14.60;56.87
21900;BME280;11114;50.658;12.704;2023-09-08T03:22:10;96540.53;;;14.63;56.65
21900;BME280;11114;50.658;12.704;2023-09-08T03:24:57;96539.50;;;14.64;56.88
21900;BME280;11114;50.658;12.704;2023-09-08T03:27:44;96534.84;;;14.66;56.96
21900;BME280;11114;50.658;12.704;2023-09-08T03:30:30;96534.84;;;14.66;56.95
21900;BME280;11114;50.658;12.704;2023-09-08T03:33:17;96537.91;;;14.70;57.01
21900;BME280;11114;50.658;12.704;2023-09-08T03:36:05;96533.28;;;14.72;56.70
21900;BME280;11114;50.658;12.704;2023-09-08T03:38:52;96531.28;;;14.74;56.53
21900;BME280;11114;50.658;12.704;2023-09-08T03:41:39;96537.16;;;14.76;56.75
21900;BME280;11114;50.658;12.704;2023-09-08T03:44:25;96529.22;;;14.76;57.00
21900;BME280;11114;50.658;12.704;2023-09-08T03:47:12;96534.53;;;14.76;57.20
21900;BME280;11114;50.658;12.704;2023-09-08T03:49:58;96534.53;;;14.76;57.19
21900;BME280;11114;50.658;12.704;2023-09-08T03:52:45;96537.16;;;14.76;57.12
21900;BME280;11114;50.658;12.704;2023-09-08T03:55:32;96532.09;;;14.74;56.96
21900;BME280;11114;50.658;12.704;2023-09-08T03:58:19;96532.28;;;14.73;56.73
21900;BME280;11114;50.658;12.704;2023-09-08T04:01:07;96527.13;;;14.65;56.91
21900;BME280;11114;50.658;12.704;2023-09-08T04:03:59;96529.25;;;14.49;57.33
21900;BME280;11114;50.658;12.704;2023-09-08T04:06:59;96522.47;;;14.33;57.54
21900;BME280;11114;50.658;12.704;2023-09-08T04:10:06;96524.94;;;14.35;57.42
21900;BME280;11114;50.658;12.704;2023-09-08T04:12:53;96519.63;;;14.35;57.39
21900;BME280;11114;50.658;12.704;2023-09-08T04:15:39;96528.56;;;14.34;57.51
21900;BME280;11114;50.658;12.704;2023-09-08T04:18:26;96527.13;;;14.31;57.42
21900;BME280;11114;50.658;12.704;2023-09-08T04:21:13;96525.69;;;14.29;57.64
21900;BME280;11114;50.658;12.704;2023-09-08T04:24:01;96528.94;;;14.31;57.71
21900;BME280;11114;50.658;12.704;2023-09-08T04:26:48;96525.09;;;14.33;57.56
21900;BME280;11114;50.658;12.704;2023-09-08T04:29:38;96532.44;;;14.38;57.32
21900;BME280;11114;50.658;12.704;2023-09-08T04:32:33;96538.94;;;14.35;57.37
21900;BME280;11114;50.658;12.704;2023-09-08T04:35:20;96530.59;;;14.32;57.59
21900;BME280;11114;50.658;12.704;2023-09-08T04:38:07;96530.38;;;14.33;57.47
21900;BME280;11114;50.658;12.704;2023-09-08T04:40:54;96519.97;;;14.25;57.52
21900;BME280;11114;50.658;12.704;2023-09-08T04:43:41;96524.63;;;14.23;57.75
21900;BME280;11114;50.658;12.704;2023-09-08T04:46:27;96528.91;;;14.24;57.67
21900;BME280;11114;50.658;12.704;2023-09-08T04:49:14;96528.47;;;14.21;57.52
21900;BME280;11114;50.658;12.704;2023-09-08T04:52:01;96528.41;;;14.14;57.95
21900;BME280;11114;50.658;12.704;2023-09-08T04:54:48;96529.19;;;14.08;57.83
21900;BME280;11114;50.658;12.704;2023-09-08T04:57:35;96521.41;;;14.00;58.44
21900;BME280;11114;50.658;12.704;2023-09-08T05:00:23;96524.63;;;13.96;58.21
21900;BME280;11114;50.658;12.704;2023-09-08T05:03:10;96528.28;;;13.95;58.59
21900;BME280;11114;50.658;12.704;2023-09-08T05:05:57;96532.69;;;13.88;58.85
21900;BME280;11114;50.658;12.704;2023-09-08T05:08:44;96529.84;;;13.89;58.72
21900;BME280;11114;50.658;12.704;2023-09-08T05:11:31;96536.75;;;13.90;58.60
21900;BME280;11114;50.658;12.704;2023-09-08T05:14:17;96524.56;;;13.89;58.73
21900;BME280;11114;50.658;12.704;2023-09-08T05:17:03;96530.47;;;13.91;58.57
21900;BME280;11114;50.658;12.704;2023-09-08T05:19:51;96526.00;;;13.92;58.66
21900;BME280;11114;50.658;12.704;2023-09-08T05:22:37;96531.13;;;13.93;58.92
21900;BME280;11114;50.658;12.704;2023-09-08T05:25:26;96527.47;;;13.94;59.13
21900;BME280;11114;50.658;12.704;2023-09-08T05:28:13;96525.44;;;13.96;59.25
21900;BME280;11114;50.658;12.704;2023-09-08T05:30:59;96530.34;;;13.99;59.44
21900;BME280;11114;50.658;12.704;2023-09-08T05:33:47;96525.69;;;14.01;59.80
21900;BME280;11114;50.658;12.704;2023-09-08T05:36:34;96531.19;;;14.06;59.69
21900;BME280;11114;50.658;12.704;2023-09-08T05:39:24;96534.09;;;14.11;59.75
21900;BME280;11114;50.658;12.704;2023-09-08T05:42:11;96533.94;;;14.19;59.94
21900;BME280;11114;50.658;12.704;2023-09-08T05:44:58;96536.03;;;14.24;60.06
21900;BME280;11114;50.658;12.704;2023-09-08T05:47:46;96534.59;;;14.28;59.88
21900;BME280;11114;50.658;12.704;2023-09-08T05:50:33;96544.59;;;14.32;60.17
21900;BME280;11114;50.658;12.704;2023-09-08T05:53:20;96544.00;;;14.37;60.26
21900;BME280;11114;50.658;12.704;2023-09-08T05:56:07;96539.78;;;14.42;60.13
21900;BME280;11114;50.658;12.704;2023-09-08T05:58:53;96534.75;;;14.47;60.02
21900;BME280;11114;50.658;12.704;2023-09-08T06:01:40;96540.25;;;14.52;59.90
21900;BME280;11114;50.658;12.704;2023-09-08T06:04:28;96533.59;;;14.56;60.16
21900;BME280;11114;50.658;12.704;2023-09-08T06:07:19;96528.53;;;14.61;60.84
21900;BME280;11114;50.658;12.704;2023-09-08T06:10:06;96533.03;;;14.67;60.15
21900;BME280;11114;50.658;12.704;2023-09-08T06:12:53;96529.66;;;14.73;60.58
21900;BME280;11114;50.658;12.704;2023-09-08T06:15:39;96527.22;;;14.78;60.31
21900;BME280;11114;50.658;12.704;2023-09-08T06:18:28;96530.69;;;14.85;60.21
21900;BME280;11114;50.658;12.704;2023-09-08T06:21:19;96529.31;;;14.89;60.39
21900;BME280;11114;50.658;12.704;2023-09-08T06:24:05;96530.53;;;14.93;60.18
21900;BME280;11114;50.658;12.704;2023-09-08T06:26:53;96524.84;;;14.96;60.01
21900;BME280;11114;50.658;12.704;2023-09-08T06:29:41;96534.63;;;15.02;60.35
21900;BME280;11114;50.658;12.704;2023-09-08T06:32:32;96537.53;;;15.07;60.34
21900;BME280;11114;50.658;12.704;2023-09-08T06:35:19;96525.50;;;15.11;60.70
21900;BME280;11114;50.658;12.704;2023-09-08T06:38:09;96535.13;;;15.18;60.68
21900;BME280;11114;50.658;12.704;2023-09-08T06:41:20;96523.94;;;15.23;60.72
21900;BME280;11114;50.658;12.704;2023-09-08T06:44:11;96530.06;;;15.30;60.15
21900;BME280;11114;50.658;12.704;2023-09-08T06:46:57;96522.34;;;15.35;60.22
21900;BME280;11114;50.658;12.704;2023-09-08T06:49:45;96527.63;;;15.41;60.03
21900;BME280;11114;50.658;12.704;2023-09-08T06:52:32;96525.00;;;15.48;60.29
21900;BME280;11114;50.658;12.704;2023-09-08T06:55:19;96520.53;;;15.54;59.92
21900;BME280;11114;50.658;12.704;2023-09-08T06:58:07;96518.78;;;15.61;60.22
21900;BME280;11114;50.658;12.704;2023-09-08T07:00:53;96515.31;;;15.67;60.01
21900;BME280;11114;50.658;12.704;2023-09-08T07:03:42;96524.69;;;15.76;60.54
21900;BME280;11114;50.658;12.704;2023-09-08T07:06:29;96522.06;;;15.83;60.22
21900;BME280;11114;50.658;12.704;2023-09-08T07:09:16;96520.84;;;15.92;58.51
21900;BME280;11114;50.658;12.704;2023-09-08T07:12:04;96526.94;;;16.05;59.07
21900;BME280;11114;50.658;12.704;2023-09-08T07:14:51;96527.13;;;16.10;59.01
21900;BME280;11114;50.658;12.704;2023-09-08T07:17:38;96522.06;;;16.15;59.97
21900;BME280;11114;50.658;12.704;2023-09-08T07:20:25;96533.25;;;16.24;59.83
21900;BME280;11114;50.658;12.704;2023-09-08T07:23:11;96528.75;;;16.31;60.14
21900;BME280;11114;50.658;12.704;2023-09-08T07:25:58;96528.75;;;16.37;60.18
21900;BME280;11114;50.658;12.704;2023-09-08T07:28:49;96519.78;;;16.44;59.80
21900;BME280;11114;50.658;12.704;2023-09-08T07:31:36;96525.91;;;16.51;59.42
21900;BME280;11114;50.658;12.704;2023-09-08T07:34:23;96522.41;;;16.57;59.11
21900;BME280;11114;50.658;12.704;2023-09-08T07:37:10;96526.91;;;16.63;58.66
21900;BME280;11114;50.658;12.704;2023-09-08T07:39:57;96523.00;;;16.72;59.34
21900;BME280;11114;50.658;12.704;2023-09-08T07:42:44;96520.72;;;16.82;57.81
21900;BME280;11114;50.658;12.704;2023-09-08T07:45:32;96522.88;;;17.05;57.03
21900;BME280;11114;50.658;12.704;2023-09-08T07:48:18;96519.53;;;17.22;55.92
21900;BME280;11114;50.658;12.704;2023-09-08T07:51:05;96523.63;;;17.31;56.04
21900;BME280;11114;50.658;12.704;2023-09-08T07:53:53;96525.38;;;17.43;54.81
21900;BME280;11114;50.658;12.704;2023-09-08T07:56:40;96523.47;;;17.57;54.38
21900;BME280;11114;50.658;12.704;2023-09-08T07:59:27;96526.44;;;17.73;54.64
21900;BME280;11114;50.658;12.704;2023-09-08T08:02:14;96519.84;;;17.82;53.79
21900;BME280;11114;50.658;12.704;2023-09-08T08:05:00;96524.00;;;17.96;53.43
21900;BME280;11114;50.658;12.704;2023-09-08T08:07:47;96532.50;;;18.11;52.41
21900;BME280;11114;50.658;12.704;2023-09-08T08:10:35;96528.06;;;18.29;51.75
21900;BME280;11114;50.658;12.704;2023-09-08T08:13:22;96526.91;;;18.43;51.85
21900;BME280;11114;50.658;12.704;2023-09-08T08:16:09;96528.00;;;18.54;51.11
21900;BME280;11114;50.658;12.704;2023-09-08T08:18:56;96521.97;;;18.65;51.33
21900;BME280;11114;50.658;12.704;2023-09-08T08:21:43;96526.19;;;18.72;51.63
21900;BME280;11114;50.658;12.704;2023-09-08T08:24:30;96525.91;;;18.80;51.15
21900;BME280;11114;50.658;12.704;2023-09-08T08:27:16;96512.94;;;18.90;50.01
21900;BME280;11114;50.658;12.704;2023-09-08T08:30:05;96518.75;;;18.98;49.32
21900;BME280;11114;50.658;12.704;2023-09-08T08:32:52;96516.97;;;19.10;48.40
21900;BME280;11114;50.658;12.704;2023-09-08T08:35:40;96518.66;;;19.23;48.34
21900;BME280;11114;50.658;12.704;2023-09-08T08:38:26;96514.66;;;19.32;48.81
21900;BME280;11114;50.658;12.704;2023-09-08T08:41:13;96514.09;;;19.41;48.68
21900;BME280;11114;50.658;12.704;2023-09-08T08:43:59;96505.34;;;19.52;47.73
21900;BME280;11114;50.658;12.704;2023-09-08T08:46:46;96506.69;;;19.61;48.04
21900;BME280;11114;50.658;12.704;2023-09-08T08:49:35;96508.59;;;19.72;47.49
21900;BME280;11114;50.658;12.704;2023-09-08T08:52:22;96514.28;;;19.87;47.01
21900;BME280;11114;50.658;12.704;2023-09-08T08:55:09;96510.41;;;20.01;47.29
21900;BME280;11114;50.658;12.704;2023-09-08T08:58:04;96510.88;;;20.21;46.39
21900;BME280;11114;50.658;12.704;2023-09-08T09:00:53;96513.25;;;20.40;45.04
21900;BME280;11114;50.658;12.704;2023-09-08T09:03:42;96505.47;;;20.61;45.48
21900;BME280;11114;50.658;12.704;2023-09-08T09:06:56;96511.72;;;20.78;45.80
21900;BME280;11114;50.658;12.704;2023-09-08T09:09:44;96507.41;;;21.00;45.01
21900;BME280;11114;50.658;12.704;2023-09-08T09:12:30;96506.19;;;21.19;45.48
21900;BME280;11114;50.658;12.704;2023-09-08T09:15:28;96502.06;;;21.40;44.24
21900;BME280;11114;50.658;12.704;2023-09-08T09:18:15;96501.19;;;21.62;43.97
21900;BME280;11114;50.658;12.704;2023-09-08T09:21:04;96500.50;;;21.83;42.37
21900;BME280;11114;50.658;12.704;2023-09-08T09:23:50;96500.34;;;22.06;42.64
21900;BME280;11114;50.658;12.704;2023-09-08T09:26:37;96509.69;;;22.20;42.17
21900;BME280;11114;50.658;12.704;2023-09-08T09:29:24;96506.66;;;22.28;41.56
21900;BME280;11114;50.658;12.704;2023-09-08T09:32:11;96488.41;;;22.41;42.29
21900;BME280;11114;50.658;12.704;2023-09-08T09:34:58;96497.44;;;22.56;42.43
21900;BME280;11114;50.658;12.704;2023-09-08T09:37:47;96497.09;;;22.69;41.93
21900;BME280;11114;50.658;12.704;2023-09-08T09:40:34;96495.94;;;22.82;40.75
21900;BME280;11114;50.658;12.704;2023-09-08T09:43:21;96500.81;;;22.85;40.65
21900;BME280;11114;50.658;12.704;2023-09-08T09:46:08;96494.44;;;23.07;40.55
21900;BME280;11114;50.658;12.704;2023-09-08T09:48:56;96491.56;;;23.35;40.33
21900;BME280;11114;50.658;12.704;2023-09-08T09:51:43;96490.94;;;23.76;39.67
21900;BME280;11114;50.658;12.704;2023-09-08T09:54:31;96491.88;;;24.12;40.03
21900;BME280;11114;50.658;12.704;2023-09-08T09:57:20;96484.09;;;24.47;39.27
21900;BME280;11114;50.658;12.704;2023-09-08T10:00:08;96486.28;;;24.96;38.65
21900;BME280;11114;50.658;12.704;2023-09-08T10:02:55;96487.09;;;25.63;38.72
21900;BME280;11114;50.658;12.704;2023-09-08T10:05:42;96489.06;;;26.17;37.78
21900;BME280;11114;50.658;12.704;2023-09-08T10:08:30;96473.16;;;26.80;36.00
21900;BME280;11114;50.658;12.704;2023-09-08T10:11:21;96477.31;;;27.26;35.64
21900;BME280;11114;50.658;12.704;2023-09-08T10:14:08;96477.16;;;27.66;36.28
21900;BME280;11114;50.658;12.704;2023-09-08T10:17:00;96469.31;;;28.13;35.17
21900;BME280;11114;50.658;12.704;2023-09-08T10:19:48;96470.34;;;28.50;33.92
21900;BME280;11114;50.658;12.704;2023-09-08T10:22:40;96466.56;;;29.03;33.89
21900;BME280;11114;50.658;12.704;2023-09-08T10:25:27;96466.00;;;29.29;33.54
21900;BME280;11114;50.658;12.704;2023-09-08T10:28:17;96472.00;;;29.86;32.46
21900;BME280;11114;50.658;12.704;2023-09-08T10:31:04;96471.44;;;30.26;31.80
21900;BME280;11114;50.658;12.704;2023-09-08T10:33:56;96463.06;;;30.54;32.00
21900;BME280;11114;50.658;12.704;2023-09-08T10:36:43;96470.00;;;30.79;31.94
21900;BME280;11114;50.658;12.704;2023-09-08T10:39:31;96463.75;;;30.91;30.10
21900;BME280;11114;50.658;12.704;2023-09-08T10:42:24;96456.38;;;31.24;30.53
21900;BME280;11114;50.658;12.704;2023-09-08T10:45:19;96455.16;;;31.30;31.11
21900;BME280;11114;50.658;12.704;2023-09-08T10:48:07;96451.03;;;31.46;30.30
21900;BME280;11114;50.658;12.704;2023-09-08T10:50:54;96445.72;;;31.54;30.04
21900;BME280;11114;50.658;12.704;2023-09-08T10:53:40;96441.44;;;31.75;29.13
21900;BME280;11114;50.658;12.704;2023-09-08T10:56:53;96441.06;;;32.03;29.44
21900;BME280;11114;50.658;12.704;2023-09-08T10:59:55;96446.06;;;32.32;28.87
21900;BME280;11114;50.658;12.704;2023-09-08T11:02:48;96440.69;;;32.40;28.81
21900;BME280;11114;50.658;12.704;2023-09-08T11:05:35;96450.47;;;32.41;28.58
21900;BME280;11114;50.658;12.704;2023-09-08T11:08:21;96446.00;;;32.45;28.55
21900;BME280;11114;50.658;12.704;2023-09-08T11:11:09;96453.00;;;32.60;28.61
21900;BME280;11114;50.658;12.704;2023-09-08T11:13:56;96444.94;;;32.76;29.06
21900;BME280;11114;50.658;12.704;2023-09-08T11:16:47;96445.69;;;32.99;28.94
21900;BME280;11114;50.658;12.704;2023-09-08T11:19:48;96446.75;;;33.28;27.73
21900;BME280;11114;50.658;12.704;2023-09-08T11:22:35;96450.88;;;33.48;27.67
21900;BME280;11114;50.658;12.704;2023-09-08T11:25:22;96444.50;;;33.69;26.95
21900;BME280;11114;50.658;12.704;2023-09-08T11:28:10;96442.56;;;33.61;26.68
21900;BME280;11114;50.658;12.704;2023-09-08T11:30:58;96438.38;;;33.72;27.37
21900;BME280;11114;50.658;12.704;2023-09-08T11:33:48;96447.38;;;33.81;25.36
21900;BME280;11114;50.658;12.704;2023-09-08T11:36:35;96440.53;;;34.00;25.66
21900;BME280;11114;50.658;12.704;2023-09-08T11:39:23;96439.88;;;34.12;24.76
21900;BME280;11114;50.658;12.704;2023-09-08T11:42:13;96439.41;;;34.27;25.11
21900;BME280;11114;50.658;12.704;2023-09-08T11:45:01;96433.78;;;34.48;24.34
21900;BME280;11114;50.658;12.704;2023-09-08T11:47:52;96437.81;;;34.34;24.81
21900;BME280;11114;50.658;12.704;2023-09-08T11:50:41;96434.06;;;34.55;23.72
21900;BME280;11114;50.658;12.704;2023-09-08T11:53:31;96435.63;;;34.65;22.47
21900;BME280;11114;50.658;12.704;2023-09-08T11:56:19;96437.56;;;34.73;23.40
21900;BME280;11114;50.658;12.704;2023-09-08T11:59:07;96428.50;;;34.27;23.27
21900;BME280;11114;50.658;12.704;2023-09-08T12:01:55;96425.44;;;34.20;23.52
21900;BME280;11114;50.658;12.704;2023-09-08T12:04:44;96431.09;;;34.32;24.17
21900;BME280;11114;50.658;12.704;2023-09-08T12:07:32;96427.19;;;34.24;22.96
21900;BME280;11114;50.658;12.704;2023-09-08T12:10:18;96420.81;;;34.29;21.63
21900;BME280;11114;50.658;12.704;2023-09-08T12:13:05;96417.75;;;34.30;20.18
21900;BME280;11114;50.658;12.704;2023-09-08T12:15:51;96411.19;;;34.23;20.21
21900;BME280;11114;50.658;12.704;2023-09-08T12:18:40;96409.09;;;34.28;22.17
21900;BME280;11114;50.658;12.704;2023-09-08T12:21:26;96403.94;;;34.43;20.97
21900;BME280;11114;50.658;12.704;2023-09-08T12:24:13;96401.88;;;34.32;20.57
21900;BME280;11114;50.658;12.704;2023-09-08T12:27:02;96407.34;;;33.90;20.89
21900;BME280;11114;50.658;12.704;2023-09-08T12:29:53;96406.06;;;33.79;19.99
21900;BME280;11114;50.658;12.704;2023-09-08T12:32:40;96408.75;;;33.70;21.44
21900;BME280;11114;50.658;12.704;2023-09-08T12:35:27;96400.59;;;33.70;20.74
21900;BME280;11114;50.658;12.704;2023-09-08T12:38:18;96399.78;;;33.70;20.32
21900;BME280;11114;50.658;12.704;2023-09-08T12:41:04;96398.00;;;33.57;20.50
21900;BME280;11114;50.658;12.704;2023-09-08T12:43:51;96395.44;;;33.44;21.08
21900;BME280;11114;50.658;12.704;2023-09-08T12:46:38;96395.59;;;33.47;20.44
21900;BME280;11114;50.658;12.704;2023-09-08T12:49:26;96402.16;;;33.46;20.90
21900;BME280;11114;50.658;12.704;2023-09-08T12:52:13;96397.38;;;33.43;21.47
21900;BME280;11114;50.658;12.704;2023-09-08T12:54:59;96401.53;;;33.49;20.76
21900;BME280;11114;50.658;12.704;2023-09-08T12:57:46;96391.75;;;33.48;19.94
21900;BME280;11114;50.658;12.704;2023-09-08T13:00:33;96393.34;;;33.41;20.25
21900;BME280;11114;50.658;12.704;2023-09-08T13:03:20;96394.63;;;33.43;20.30
21900;BME280;11114;50.658;12.704;2023-09-08T13:06:06;96389.50;;;33.58;19.67
21900;BME280;11114;50.658;12.704;2023-09-08T13:08:53;96389.53;;;33.75;20.84
21900;BME280;11114;50.658;12.704;2023-09-08T13:11:39;96390.97;;;33.81;20.47
21900;BME280;11114;50.658;12.704;2023-09-08T13:14:26;96390.81;;;34.12;20.96
21900;BME280;11114;50.658;12.704;2023-09-08T13:17:13;96387.41;;;34.48;20.39
21900;BME280;11114;50.658;12.704;2023-09-08T13:20:01;96379.44;;;34.81;19.44
21900;BME280;11114;50.658;12.704;2023-09-08T13:22:47;96385.97;;;34.97;19.28
21900;BME280;11114;50.658;12.704;2023-09-08T13:25:34;96382.16;;;34.89;18.89
21900;BME280;11114;50.658;12.704;2023-09-08T13:28:20;96383.44;;;34.38;20.13
21900;BME280;11114;50.658;12.704;2023-09-08T13:31:07;96382.34;;;32.98;21.21
21900;BME280;11114;50.658;12.704;2023-09-08T13:33:54;96375.56;;;32.05;22.57
21900;BME280;11114;50.658;12.704;2023-09-08T13:36:41;96373.94;;;31.60;23.23
21900;BME280;11114;50.658;12.704;2023-09-08T13:39:33;96374.25;;;31.32;23.46
21900;BME280;11114;50.658;12.704;2023-09-08T13:42:30;96378.31;;;30.94;23.97
21900;BME280;11114;50.658;12.704;2023-09-08T13:45:18;96376.34;;;30.54;23.89
21900;BME280;11114;50.658;12.704;2023-09-08T13:48:04;96375.53;;;30.27;24.65
21900;BME280;11114;50.658;12.704;2023-09-08T13:50:53;96377.50;;;30.03;26.22
21900;BME280;11114;50.658;12.704;2023-09-08T13:53:41;96380.88;;;29.63;25.36
21900;BME280;11114;50.658;12.704;2023-09-08T13:56:34;96377.06;;;29.27;26.15
21900;BME280;11114;50.658;12.704;2023-09-08T13:59:23;96379.25;;;29.02;26.14
21900;BME280;11114;50.658;12.704;2023-09-08T14:02:15;96368.31;;;28.70;26.70
21900;BME280;11114;50.658;12.704;2023-09-08T14:05:21;96369.88;;;28.48;27.45
21900;BME280;11114;50.658;12.704;2023-09-08T14:08:34;96372.28;;;28.26;27.82
21900;BME280;11114;50.658;12.704;2023-09-08T14:11:41;96367.66;;;27.98;28.08
21900;BME280;11114;50.658;12.704;2023-09-08T14:14:47;96366.47;;;27.76;28.65
21900;BME280;11114;50.658;12.704;2023-09-08T14:17:34;96372.81;;;27.61;28.87
21900;BME280;11114;50.658;12.704;2023-09-08T14:20:21;96364.81;;;27.42;29.25
21900;BME280;11114;50.658;12.704;2023-09-08T14:23:08;96364.88;;;27.32;29.48
21900;BME280;11114;50.658;12.704;2023-09-08T14:25:55;96376.25;;;27.24;30.10
21900;BME280;11114;50.658;12.704;2023-09-08T14:28:42;96379.31;;;27.02;30.23
21900;BME280;11114;50.658;12.704;2023-09-08T14:31:28;96375.84;;;26.87;30.42
21900;BME280;11114;50.658;12.704;2023-09-08T14:34:17;96363.53;;;26.76;30.52
21900;BME280;11114;50.658;12.704;2023-09-08T14:37:03;96368.94;;;26.66;30.92
21900;BME280;11114;50.658;12.704;2023-09-08T14:39:54;96374.09;;;26.48;31.07
21900;BME280;11114;50.658;12.704;2023-09-08T14:42:41;96373.84;;;26.39;31.81
21900;BME280;11114;50.658;12.704;2023-09-08T14:45:27;96367.66;;;26.34;31.75